<?xml version="1.0" encoding="UTF-8" standalone="no" ?>
<gpx xmlns="http://www.topografix.com/GPX/1/1" xmlns:xsi="http://www.w3.org/2001/XMLSchema-instance" xsi:schemaLocation="http://www.topografix.com/GPX/1/1 http://www.topografix.com/GPX/1/1/gpx.xsd" version="1.1" creator="VisuGPX - https://www.visugpx.com">
  <metadata>
    <name>GR65 de Conques à Livinhac le Haut </name>
    <desc><![CDATA[Variante qui évite Decazeville en passant par la route des crêtes sur les conseils de Christian, l\'Hospitalier de Prayssac]]></desc>
  </metadata>
  <trk>
    <name><![CDATA[ACTIVE LOG192757]]></name>
    <trkseg>
      <trkpt lat="44.59063" lon="2.23258">
        <ele>223.92</ele>
        <time>2013-06-24T17:27:57Z</time>
      </trkpt>
      <trkpt lat="44.59078" lon="2.23233">
        <ele>225.341</ele>
        <time>2013-06-24T17:28:22Z</time>
      </trkpt>
      <trkpt lat="44.59097" lon="2.23215">
        <ele>224.212</ele>
        <time>2013-06-24T17:28:25Z</time>
      </trkpt>
      <trkpt lat="44.59104" lon="2.23203">
        <ele>224.356</ele>
        <time>2013-06-24T17:28:35Z</time>
      </trkpt>
      <trkpt lat="44.59156" lon="2.23093">
        <ele>226.672</ele>
        <time>2013-06-24T17:28:48Z</time>
      </trkpt>
      <trkpt lat="44.5915" lon="2.231">
        <ele>227.749</ele>
        <time>2013-06-24T17:28:57Z</time>
      </trkpt>
      <trkpt lat="44.59147" lon="2.23101">
        <ele>229.256</ele>
        <time>2013-06-24T17:29:01Z</time>
      </trkpt>
      <trkpt lat="44.59154" lon="2.231">
        <ele>228.476</ele>
        <time>2013-06-24T17:29:16Z</time>
      </trkpt>
      <trkpt lat="44.59148" lon="2.23101">
        <ele>228.823</ele>
        <time>2013-06-24T17:29:32Z</time>
      </trkpt>
      <trkpt lat="44.59157" lon="2.23103">
        <ele>228.467</ele>
        <time>2013-06-24T17:29:42Z</time>
      </trkpt>
      <trkpt lat="44.59152" lon="2.23102">
        <ele>227.785</ele>
        <time>2013-06-24T17:29:54Z</time>
      </trkpt>
      <trkpt lat="44.59147" lon="2.23104">
        <ele>227.389</ele>
        <time>2013-06-24T17:30:07Z</time>
      </trkpt>
      <trkpt lat="44.59156" lon="2.23106">
        <ele>227.043</ele>
        <time>2013-06-24T17:30:17Z</time>
      </trkpt>
      <trkpt lat="44.59154" lon="2.23107">
        <ele>227.127</ele>
        <time>2013-06-24T17:30:31Z</time>
      </trkpt>
      <trkpt lat="44.59146" lon="2.23107">
        <ele>226.333</ele>
        <time>2013-06-24T17:30:42Z</time>
      </trkpt>
      <trkpt lat="44.59149" lon="2.23108">
        <ele>226.874</ele>
        <time>2013-06-24T17:31:05Z</time>
      </trkpt>
      <trkpt lat="44.59152" lon="2.2311">
        <ele>227.034</ele>
        <time>2013-06-24T17:31:19Z</time>
      </trkpt>
      <trkpt lat="44.5915" lon="2.23104">
        <ele>227.137</ele>
        <time>2013-06-24T17:31:46Z</time>
      </trkpt>
      <trkpt lat="44.59154" lon="2.23097">
        <ele>228.164</ele>
        <time>2013-06-24T17:32:02Z</time>
      </trkpt>
      <trkpt lat="44.59153" lon="2.23101">
        <ele>226.834</ele>
        <time>2013-06-24T17:32:04Z</time>
      </trkpt>
      <trkpt lat="44.59151" lon="2.23107">
        <ele>227.398</ele>
        <time>2013-06-24T17:32:16Z</time>
      </trkpt>
      <trkpt lat="44.59155" lon="2.23107">
        <ele>227.844</ele>
        <time>2013-06-24T17:32:27Z</time>
      </trkpt>
      <trkpt lat="44.59157" lon="2.23107">
        <ele>228.409</ele>
        <time>2013-06-24T17:32:33Z</time>
      </trkpt>
    </trkseg>
  </trk>
</gpx>